| Pilot: | GLD1790 Rodrigo T. | Aircraft: | Cessna | Distance: | 177NM |
| From: | SDBN | To: | SDJC | Duration: | 1.92 |
| Validation: | Valid | Tipo: | Charter | Tail Number: | PT-GLD |
| ZFW: | 1273 | Block Fuel/Init FOB | 43flight_details.php/24 | Flight Fuel | 43 |
| Passengers: | 0 | Cargo: | 10 | Alternate: | SBRP |
| Departure Time: | 1431 | Cruise Speed: | 95 | Flight Level: | A7500 |
| Flight Type: | VFR | Aircraft Type: | C152 | Weight Unit: | Kg |
| Date: | 19/04/2026 | Comments: | GOLD ACARS | Network: | IVAO |
| Crash: | No | Validator Comments: | Rating | 126.324 |
| ROUTE | DCT 2331S04722W REA 2206S04817W 2136S04824W DCT |
| REMARKS | OPR/GOLD VIRTUAL AIRLINES PER/A RMK/FROM SBMT RMK/PIC GLD1790 RMK/EM TREINAMENTO VFR ALT MAX REA ALFA HOTEL |
| Crash | OK | Beacon Lights off with engine on | Fault | Speed above 250KIAS below 10.000ft | OK |
| Landing Lights OFF below 10.000ft | Fault | Landing Lights ON above 10.000ft | OK | Stall | OK |
| Overspeed | OK | Pause | OK | Refuel | OK |
| Slew | OK | Taxi Lights OFF during taxi | OK | Land Lights OFF during take off | OK |
| Landing Lights OFF during landing | OK | Landed in not planned airfield | OK | Taxi speed above 25 kt | OK |
| Incorrect QNH during take off | OK | Incorrect QNH during landing | OK |
| Wind: | 269º/3 kt | Heading: | 224 |
| VS: | -29 ft/min | IAS: | 33 kt |
| Gforce: | 1.1088 G | Bank: | 0.88 |
| Pitch | 6.19 | Flaps | 66 |
| Nav Lights | ON | Landing Lights | ON |
| Beacon Lights | ON | Strobe Lights | ON |
| DATE | EVENT | IAS | ALTITUDE |
|---|---|---|---|
| 2026-04-19 14:31:09 | GOLD ACARS VERSION 3.3.6.9 | 0 | 0 |
| 2026-04-19 14:31:09 | BOARDING | 0 | 2320 |
| 2026-04-19 14:31:09 | STARTING ENGINE 1 | 0 | 2320 |
| 2026-04-19 14:31:09 | BEACON LIGHT OFF & ENGINE ON | 0 | 2320 |
| 2026-04-19 14:34:34 | BCN LIGHTS ON | 0 | 2320 |
| 2026-04-19 14:34:38 | TAXI LIGHTS ON | 0 | 2320 |
| 2026-04-19 14:35:24 | TAXI TO THE RWY | 0 | 2321 |
| 2026-04-19 14:37:13 | LND LIGHTS ON | 0 | 2331 |
| 2026-04-19 14:37:14 | TAXI LIGHTS OFF | 0 | 2331 |
| 2026-04-19 14:37:16 | STB LIGHTS ON | 0 | 2331 |
| 2026-04-19 14:38:18 | GEAR UP | 51 | 2320 |
| 2026-04-19 14:38:33 | CLIMBING | 76 | 2390 |
| 2026-04-19 14:39:02 | AP ENGAGED | 76 | 2825 |
| 2026-04-19 14:39:31 | AP DISENGAGED | 51 | 3303 |
| 2026-04-19 14:39:34 | CRUISE | 53 | 3320 |
| 2026-04-19 14:39:40 | CLIMBING | 59 | 3349 |
| 2026-04-19 14:39:44 | CRUISE | 59 | 3375 |
| 2026-04-19 14:39:49 | CLIMBING | 63 | 3395 |
| 2026-04-19 14:40:38 | AP ENGAGED | 80 | 4360 |
| 2026-04-19 14:41:03 | AP DISENGAGED | 77 | 4753 |
| 2026-04-19 14:41:03 | CRUISE | 78 | 4755 |
| 2026-04-19 14:41:15 | CLIMBING | 81 | 4811 |
| 2026-04-19 14:41:24 | AP ENGAGED | 89 | 4889 |
| 2026-04-19 14:41:34 | CRUISE | 89 | 5020 |
| 2026-04-19 14:43:07 | AP DISENGAGED | 77 | 4577 |
| 2026-04-19 14:43:24 | LND LIGHTS OFF | 81 | 4618 |
| 2026-04-19 14:43:24 | LIGHTS OFF BELOW 10000 ft | 81 | 4619 |
| 2026-04-19 14:43:30 | LND LIGHTS ON | 79 | 4619 |
| 2026-04-19 14:44:04 | AP ENGAGED | 84 | 4384 |
| 2026-04-19 14:44:11 | CLIMBING | 77 | 4418 |
| 2026-04-19 14:44:16 | CRUISE | 76 | 4461 |
| 2026-04-19 14:46:11 | CLIMBING | 80 | 4038 |
| 2026-04-19 14:46:17 | CRUISE | 88 | 4086 |
| 2026-04-19 14:46:54 | CLIMBING | 90 | 4120 |
| 2026-04-19 14:47:18 | CRUISE | 99 | 4302 |
| 2026-04-19 14:48:08 | AP DISENGAGED | 93 | 4321 |
| 2026-04-19 14:48:09 | CLIMBING | 94 | 4325 |
| 2026-04-19 14:48:17 | CRUISE | 90 | 4407 |
| 2026-04-19 14:50:32 | AP ENGAGED | 87 | 3974 |
| 2026-04-19 14:50:47 | CLIMBING | 91 | 4034 |
| 2026-04-19 14:51:08 | CRUISE | 92 | 4166 |
| 2026-04-19 14:51:21 | AP DISENGAGED | 90 | 4173 |
| 2026-04-19 14:52:53 | CLIMBING | 92 | 4027 |
| 2026-04-19 14:52:55 | CRUISE | 93 | 4039 |
| 2026-04-19 14:53:03 | AP ENGAGED | 101 | 4042 |
| 2026-04-19 15:04:23 | CLIMBING | 96 | 4014 |
| 2026-04-19 15:04:26 | CRUISE | 97 | 4039 |
| 2026-04-19 15:07:05 | CLIMBING | 81 | 4065 |
| 2026-04-19 15:08:51 | CRUISE | 66 | 5095 |
| 2026-04-19 15:08:55 | DESCEND | 70 | 5094 |
| 2026-04-19 15:11:19 | CLIMBING | 96 | 5050 |
| 2026-04-19 15:14:24 | CRUISE | 71 | 6490 |
| 2026-04-19 15:48:12 | CLIMBING | 86 | 6506 |
| 2026-04-19 15:48:47 | CRUISE | 77 | 6767 |
| 2026-04-19 15:49:13 | CLIMBING | 73 | 6919 |
| 2026-04-19 15:50:04 | CRUISE | 74 | 7280 |
| 2026-04-19 16:13:21 | DESCEND | 83 | 7487 |
| 2026-04-19 16:19:37 | AP DISENGAGED | 87 | 3866 |
| 2026-04-19 16:21:38 | FLAP 33% | 80 | 3109 |
| 2026-04-19 16:22:55 | FLAP 66% | 72 | 2608 |
| 2026-04-19 16:24:10 | LANDED AIRPORT [SDJC] | 34 | 2066 |
| 2026-04-19 16:24:10 | LANDED - VS: -29 ft/min | 33 | 2065 |
| 2026-04-19 16:24:12 | TAXI TO THE GATE | 29 | 2066 |
| 2026-04-19 16:24:44 | LND LIGHTS OFF | 7 | 2071 |
| 2026-04-19 16:24:46 | TAXI LIGHTS ON | 7 | 2071 |
| 2026-04-19 16:24:46 | FLAP 33% | 6 | 2071 |
| 2026-04-19 16:24:47 | FLAP 0% | 6 | 2071 |
| 2026-04-19 16:25:02 | STB LIGHTS OFF | 0 | 2070 |
| 2026-04-19 16:26:02 | AT THE GATE | 0 | 2071 |
| 2026-04-19 16:26:12 | TAXI LIGHTS OFF | 0 | 2071 |
| 2026-04-19 16:26:21 | STOPPING ENGINE 1 | 0 | 2071 |
| 2026-04-19 16:26:36 | NAV LIGHTS OFF | 0 | 2071 |
| 2026-04-19 16:26:37 | BCN LIGHTS OFF | 0 | 2071 |
| 2026-04-19 16:26:37 | FLIGHT FINISHED | 0 | 2071 |
| DATE | IAS | GS | ALTITUDE | FUEL USED | OAT | Flight Phase |
|---|---|---|---|---|---|---|
| 2026-04-19 14:33:09 | 0 | 0 | 2320 | 0 | 26 | BOARDING |
| 2026-04-19 14:34:09 | 0 | 0 | 2320 | 0 | 26 | BOARDING |
| 2026-04-19 14:35:09 | 0 | 0 | 2320 | 0 | 26 | BOARDING |
| 2026-04-19 14:36:10 | 0 | 9 | 2327 | 0 | 26 | BOARDING |
| 2026-04-19 14:37:10 | 0 | 0 | 2331 | 0 | 26 | TAXI TO THE RWY |
| 2026-04-19 14:38:10 | 20 | 40 | 2330 | 0 | 26 | TAXI TO THE RWY |
| 2026-04-19 14:39:10 | 67 | 80 | 2997 | 1 | 25 | TAXI TO THE RWY |
| 2026-04-19 14:40:10 | 68 | 86 | 3844 | 1 | 21 | CLIMBING |
| 2026-04-19 14:41:10 | 82 | 99 | 4774 | 1 | 18 | CLIMBING |
| 2026-04-19 14:42:11 | 79 | 100 | 4768 | 1 | 18 | CRUISE |
| 2026-04-19 14:43:11 | 77 | 96 | 4570 | 1 | 19 | CRUISE |
| 2026-04-19 14:44:11 | 78 | 96 | 4412 | 2 | 19 | CRUISE |
| 2026-04-19 14:45:11 | 84 | 103 | 4245 | 2 | 20 | CRUISE |
| 2026-04-19 14:46:11 | 80 | 96 | 4035 | 2 | 21 | CRUISE |
| 2026-04-19 14:47:11 | 99 | 112 | 4239 | 2 | 20 | CRUISE |
| 2026-04-19 14:48:11 | 94 | 107 | 4344 | 2 | 20 | CLIMBING |
| 2026-04-19 14:49:11 | 90 | 103 | 4189 | 2 | 20 | CLIMBING |
| 2026-04-19 14:50:11 | 95 | 107 | 4043 | 2 | 21 | CRUISE |
| 2026-04-19 14:51:11 | 93 | 106 | 4181 | 3 | 20 | CRUISE |
| 2026-04-19 14:52:11 | 90 | 102 | 4116 | 3 | 20 | CRUISE |
| 2026-04-19 14:53:11 | 96 | 109 | 4075 | 3 | 20 | CRUISE |
| 2026-04-19 14:54:12 | 92 | 103 | 4035 | 3 | 20 | CRUISE |
| 2026-04-19 14:55:12 | 94 | 105 | 4019 | 3 | 21 | CRUISE |
| 2026-04-19 14:56:12 | 102 | 111 | 4048 | 4 | 20 | CRUISE |
| 2026-04-19 14:57:12 | 89 | 100 | 4000 | 4 | 21 | CRUISE |
| 2026-04-19 14:58:12 | 98 | 109 | 4082 | 4 | 20 | CRUISE |
| 2026-04-19 14:59:12 | 99 | 110 | 4031 | 4 | 20 | CRUISE |
| 2026-04-19 15:00:12 | 97 | 109 | 4021 | 4 | 20 | CRUISE |
| 2026-04-19 15:01:12 | 90 | 103 | 4046 | 5 | 20 | CRUISE |
| 2026-04-19 15:02:12 | 90 | 104 | 4001 | 5 | 21 | CRUISE |
| 2026-04-19 15:03:12 | 101 | 112 | 4079 | 5 | 20 | CRUISE |
| 2026-04-19 15:04:12 | 97 | 109 | 3999 | 5 | 21 | CRUISE |
| 2026-04-19 15:05:12 | 98 | 110 | 4081 | 6 | 20 | CRUISE |
| 2026-04-19 15:06:13 | 93 | 105 | 4040 | 6 | 21 | CRUISE |
| 2026-04-19 15:07:13 | 80 | 94 | 4157 | 6 | 20 | CRUISE |
| 2026-04-19 15:08:13 | 73 | 88 | 4783 | 6 | 18 | CLIMBING |
| 2026-04-19 15:09:13 | 82 | 98 | 5028 | 7 | 18 | CLIMBING |
| 2026-04-19 15:10:13 | 95 | 109 | 5030 | 7 | 18 | DESCEND |
| 2026-04-19 15:11:13 | 96 | 111 | 5022 | 7 | 18 | DESCEND |
| 2026-04-19 15:12:13 | 79 | 93 | 5482 | 7 | 16 | DESCEND |
| 2026-04-19 15:13:14 | 69 | 82 | 5920 | 7 | 15 | CLIMBING |
| 2026-04-19 15:14:14 | 70 | 84 | 6404 | 8 | 14 | CLIMBING |
| 2026-04-19 15:15:14 | 87 | 97 | 6506 | 8 | 14 | CLIMBING |
| 2026-04-19 15:16:14 | 93 | 103 | 6509 | 8 | 14 | CRUISE |
| 2026-04-19 15:17:14 | 86 | 96 | 6483 | 8 | 14 | CRUISE |
| 2026-04-19 15:18:14 | 83 | 93 | 6500 | 8 | 14 | CRUISE |
| 2026-04-19 15:19:14 | 87 | 96 | 6495 | 8 | 14 | CRUISE |
| 2026-04-19 15:20:14 | 80 | 90 | 6486 | 9 | 14 | CRUISE |
| 2026-04-19 15:21:14 | 85 | 94 | 6516 | 9 | 14 | CRUISE |
| 2026-04-19 15:22:14 | 82 | 93 | 6498 | 9 | 14 | CRUISE |
| 2026-04-19 15:23:15 | 93 | 102 | 6539 | 9 | 14 | CRUISE |
| 2026-04-19 15:24:15 | 86 | 95 | 6472 | 9 | 14 | CRUISE |
| 2026-04-19 15:25:15 | 90 | 98 | 6516 | 10 | 14 | CRUISE |
| 2026-04-19 15:26:15 | 92 | 101 | 6499 | 10 | 14 | CRUISE |
| 2026-04-19 15:27:15 | 90 | 99 | 6497 | 10 | 14 | CRUISE |
| 2026-04-19 15:28:15 | 88 | 99 | 6501 | 10 | 14 | CRUISE |
| 2026-04-19 15:29:15 | 86 | 96 | 6485 | 10 | 14 | CRUISE |
| 2026-04-19 15:30:15 | 89 | 99 | 6537 | 11 | 14 | CRUISE |
| 2026-04-19 15:31:15 | 76 | 87 | 6508 | 11 | 14 | CRUISE |
| 2026-04-19 15:32:15 | 93 | 105 | 6594 | 11 | 14 | CRUISE |
| 2026-04-19 15:33:15 | 81 | 93 | 6502 | 11 | 14 | CRUISE |
| 2026-04-19 15:34:15 | 88 | 101 | 6534 | 11 | 14 | CRUISE |
| 2026-04-19 15:35:16 | 80 | 93 | 6499 | 11 | 14 | CRUISE |
| 2026-04-19 15:36:16 | 90 | 102 | 6564 | 12 | 14 | CRUISE |
| 2026-04-19 15:37:16 | 82 | 94 | 6504 | 12 | 14 | CRUISE |
| 2026-04-19 15:38:16 | 90 | 102 | 6525 | 12 | 14 | CRUISE |
| 2026-04-19 15:39:16 | 87 | 100 | 6502 | 12 | 14 | CRUISE |
| 2026-04-19 15:40:16 | 85 | 98 | 6514 | 12 | 14 | CRUISE |
| 2026-04-19 15:41:16 | 82 | 95 | 6495 | 13 | 14 | CRUISE |
| 2026-04-19 15:42:16 | 88 | 100 | 6515 | 13 | 14 | CRUISE |
| 2026-04-19 15:43:16 | 91 | 103 | 6507 | 13 | 14 | CRUISE |
| 2026-04-19 15:44:16 | 86 | 99 | 6473 | 13 | 15 | CRUISE |
| 2026-04-19 15:45:16 | 90 | 104 | 6509 | 13 | 14 | CRUISE |
| 2026-04-19 15:46:16 | 92 | 105 | 6494 | 13 | 15 | CRUISE |
| 2026-04-19 15:47:16 | 88 | 102 | 6493 | 14 | 15 | CRUISE |
| 2026-04-19 15:48:17 | 84 | 97 | 6542 | 14 | 14 | CRUISE |
| 2026-04-19 15:49:17 | 73 | 93 | 6948 | 14 | 14 | CLIMBING |
| 2026-04-19 15:50:17 | 73 | 93 | 7332 | 14 | 13 | CLIMBING |
| 2026-04-19 15:51:17 | 89 | 108 | 7512 | 14 | 12 | CRUISE |
| 2026-04-19 15:52:17 | 88 | 107 | 7495 | 15 | 12 | CRUISE |
| 2026-04-19 15:53:17 | 86 | 104 | 7503 | 15 | 12 | CRUISE |
| 2026-04-19 15:54:17 | 87 | 106 | 7504 | 15 | 12 | CRUISE |
| 2026-04-19 15:55:17 | 89 | 107 | 7488 | 15 | 12 | CRUISE |
| 2026-04-19 15:56:18 | 87 | 105 | 7501 | 15 | 12 | CRUISE |
| 2026-04-19 15:57:18 | 86 | 104 | 7508 | 15 | 12 | CRUISE |
| 2026-04-19 15:58:18 | 85 | 103 | 7494 | 16 | 12 | CRUISE |
| 2026-04-19 15:59:18 | 82 | 100 | 7486 | 16 | 12 | CRUISE |
| 2026-04-19 16:00:22 | 85 | 103 | 7511 | 16 | 12 | CRUISE |
| 2026-04-19 16:01:22 | 81 | 100 | 7497 | 16 | 13 | CRUISE |
| 2026-04-19 16:02:23 | 81 | 100 | 7502 | 16 | 13 | CRUISE |
| 2026-04-19 16:03:23 | 83 | 102 | 7504 | 17 | 13 | CRUISE |
| 2026-04-19 16:04:23 | 79 | 97 | 7502 | 17 | 13 | CRUISE |
| 2026-04-19 16:05:23 | 85 | 103 | 7506 | 17 | 13 | CRUISE |
| 2026-04-19 16:06:23 | 86 | 104 | 7501 | 17 | 13 | CRUISE |
| 2026-04-19 16:07:23 | 84 | 103 | 7504 | 17 | 13 | CRUISE |
| 2026-04-19 16:08:23 | 85 | 105 | 7498 | 17 | 13 | CRUISE |
| 2026-04-19 16:09:23 | 80 | 101 | 7492 | 18 | 13 | CRUISE |
| 2026-04-19 16:10:24 | 85 | 104 | 7498 | 18 | 13 | CRUISE |
| 2026-04-19 16:11:24 | 83 | 103 | 7504 | 18 | 13 | CRUISE |
| 2026-04-19 16:12:24 | 79 | 100 | 7493 | 18 | 13 | CRUISE |
| 2026-04-19 16:13:24 | 85 | 105 | 7464 | 18 | 13 | CRUISE |
| 2026-04-19 16:14:24 | 89 | 107 | 6930 | 18 | 14 | DESCEND |
| 2026-04-19 16:15:24 | 89 | 105 | 6394 | 18 | 15 | DESCEND |
| 2026-04-19 16:16:25 | 85 | 101 | 5769 | 19 | 17 | DESCEND |
| 2026-04-19 16:17:25 | 88 | 103 | 5230 | 19 | 19 | DESCEND |
| 2026-04-19 16:18:25 | 89 | 104 | 4654 | 19 | 21 | DESCEND |
| 2026-04-19 16:19:25 | 87 | 100 | 3972 | 19 | 23 | DESCEND |
| 2026-04-19 16:20:26 | 85 | 98 | 3408 | 19 | 24 | DESCEND |
| 2026-04-19 16:21:26 | 80 | 93 | 3146 | 19 | 25 | DESCEND |
| 2026-04-19 16:22:26 | 72 | 85 | 2857 | 19 | 26 | DESCEND |
| 2026-04-19 16:23:26 | 61 | 67 | 2447 | 19 | 29 | DESCEND |
| 2026-04-19 16:24:26 | 16 | 27 | 2070 | 19 | 31 | DESCEND |
| 2026-04-19 16:25:26 | 0 | 4 | 2069 | 19 | 31 | TAXI TO THE GATE |
| 2026-04-19 16:26:27 | 0 | 0 | 2071 | 19 | 31 | TAXI TO THE GATE |